createdAt,value
2023-02-28T00:00:23.204Z,3.28
2023-02-28T00:02:50.749Z,5.28
2023-02-28T00:05:20.532Z,7.28
2023-02-28T00:07:48.512Z,8.27
2023-02-28T00:10:21.738Z,5.03
2023-02-28T00:12:50.192Z,5.50
2023-02-28T00:15:17.692Z,7.30
2023-02-28T00:17:45.587Z,5.22
2023-02-28T00:20:14.241Z,4.90
2023-02-28T00:22:43.823Z,5.90
2023-02-28T00:25:13.184Z,6.10
2023-02-28T00:30:10.937Z,3.40
2023-02-28T00:32:38.619Z,6.13
2023-02-28T00:35:39.863Z,4.05
2023-02-28T00:38:09.342Z,5.57
2023-02-28T00:40:36.356Z,4.00
2023-02-28T00:43:04.299Z,6.38
2023-02-28T00:45:31.543Z,4.20
2023-02-28T00:47:58.630Z,5.70
2023-02-28T00:50:26.090Z,6.32
2023-02-28T00:52:53.128Z,6.97
2023-02-28T00:55:21.002Z,6.45
2023-02-28T00:57:48.924Z,4.88
2023-02-28T01:00:16.431Z,7.35
2023-02-28T01:02:43.629Z,6.32
2023-02-28T01:05:11.354Z,4.25
2023-02-28T01:07:39.425Z,9.48
2023-02-28T01:10:06.948Z,5.13
2023-02-28T01:12:34.038Z,6.55
2023-02-28T01:15:01.137Z,6.90
2023-02-28T01:17:28.212Z,4.90
2023-02-28T01:19:57.868Z,6.00
2023-02-28T01:22:25.962Z,7.35
2023-02-28T01:24:53.082Z,5.55
2023-02-28T01:27:20.095Z,5.85
2023-02-28T01:29:47.125Z,8.73
2023-02-28T01:32:14.352Z,7.30
2023-02-28T01:34:41.487Z,6.28
2023-02-28T01:37:08.475Z,7.85
2023-02-28T01:39:35.483Z,6.25
2023-02-28T01:42:04.168Z,6.20
2023-02-28T01:45:01.677Z,8.13
2023-02-28T01:47:39.634Z,7.15
2023-02-28T01:50:12.733Z,6.78
2023-02-28T01:52:45.416Z,4.85
2023-02-28T01:55:14.175Z,5.43
2023-02-28T01:57:51.361Z,7.05
2023-02-28T02:00:23.475Z,7.90
2023-02-28T02:02:54.221Z,7.03
2023-02-28T02:05:24.226Z,6.85
2023-02-28T02:07:57.218Z,7.82
2023-02-28T02:10:42.200Z,7.30
2023-02-28T02:13:27.370Z,8.90
2023-02-28T02:16:15.548Z,6.63
2023-02-28T02:18:52.059Z,7.27
2023-02-28T02:21:47.759Z,8.70
2023-02-28T02:24:39.270Z,7.32
2023-02-28T02:27:29.937Z,7.00
2023-02-28T02:30:15.679Z,7.32
2023-02-28T02:33:05.562Z,8.55
2023-02-28T02:35:56.638Z,5.47
2023-02-28T02:38:27.262Z,7.85
2023-02-28T02:40:54.193Z,8.88
2023-02-28T02:43:27.702Z,9.00
2023-02-28T02:46:04.813Z,10.95
2023-02-28T02:48:35.365Z,6.88
2023-02-28T02:51:12.835Z,6.93
2023-02-28T02:54:31.129Z,6.03
2023-02-28T02:57:06.963Z,5.65
2023-02-28T02:59:34.861Z,7.53
2023-02-28T03:02:06.822Z,9.50
2023-02-28T03:04:41.501Z,7.65
2023-02-28T03:07:08.552Z,6.88
2023-02-28T03:09:36.755Z,8.68
2023-02-28T03:12:07.490Z,7.10
2023-02-28T03:15:11.873Z,10.25
2023-02-28T03:18:03.652Z,7.47
2023-02-28T03:20:49.276Z,8.50
2023-02-28T03:23:36.487Z,9.52
2023-02-28T03:26:19.737Z,8.73
2023-02-28T03:29:08.205Z,9.02
2023-02-28T03:31:41.854Z,8.35
2023-02-28T03:34:30.210Z,8.70
2023-02-28T03:37:07.849Z,9.47
2023-02-28T03:39:34.793Z,12.93
2023-02-28T03:42:19.224Z,9.57
2023-02-28T03:44:55.059Z,10.18
2023-02-28T03:47:44.409Z,12.25
2023-02-28T03:50:22.871Z,12.60
2023-02-28T03:52:56.131Z,10.20
2023-02-28T03:55:23.317Z,10.35
2023-02-28T03:58:14.194Z,10.65
2023-02-28T04:01:13.363Z,8.98
2023-02-28T04:06:14.076Z,8.77
2023-02-28T04:08:41.408Z,7.03
2023-02-28T04:11:20.064Z,6.10
2023-02-28T04:13:47.686Z,6.18
2023-02-28T04:16:32.025Z,12.20
2023-02-28T04:19:06.262Z,9.70
2023-02-28T04:21:40.142Z,7.57
2023-02-28T04:24:09.348Z,10.32
2023-02-28T04:26:37.902Z,6.25
2023-02-28T04:29:08.556Z,10.02
2023-02-28T04:31:35.801Z,6.32
2023-02-28T04:34:03.313Z,11.43
2023-02-28T04:36:30.824Z,10.43
2023-02-28T04:38:57.918Z,8.10
2023-02-28T04:41:25.335Z,8.07
2023-02-28T04:43:54.100Z,8.45
2023-02-28T04:46:21.999Z,11.20
2023-02-28T04:48:49.218Z,9.20
2023-02-28T04:51:18.268Z,9.73
2023-02-28T04:53:45.694Z,10.70
2023-02-28T04:56:18.433Z,7.35
2023-02-28T04:58:46.155Z,9.25
2023-02-28T05:01:23.588Z,9.35
2023-02-28T05:03:51.480Z,7.68
2023-02-28T05:06:19.706Z,7.65
2023-02-28T05:08:47.205Z,10.32
2023-02-28T05:11:24.482Z,7.70
2023-02-28T05:13:52.732Z,10.77
2023-02-28T05:16:20.351Z,11.13
2023-02-28T05:18:47.913Z,10.52
2023-02-28T05:21:27.226Z,11.02
2023-02-28T05:23:55.378Z,10.38
2023-02-28T05:26:22.674Z,11.10
2023-02-28T05:28:49.975Z,10.68
2023-02-28T05:31:17.092Z,9.65
2023-02-28T05:33:44.133Z,12.43
2023-02-28T05:36:11.316Z,12.25
2023-02-28T05:38:39.020Z,8.95
2023-02-28T05:41:07.998Z,12.68
2023-02-28T05:43:35.829Z,13.38
2023-02-28T05:46:10.983Z,12.10
2023-02-28T05:48:39.983Z,13.73
2023-02-28T05:51:08.439Z,12.55
2023-02-28T05:53:36.009Z,12.63
2023-02-28T05:56:03.101Z,11.52
2023-02-28T05:58:32.045Z,12.98
2023-02-28T06:01:38.218Z,11.43
2023-02-28T06:04:07.140Z,10.57
2023-02-28T06:06:38.038Z,12.27
2023-02-28T06:09:06.485Z,11.45
2023-02-28T06:11:34.205Z,10.07
2023-02-28T06:14:02.755Z,11.52
2023-02-28T06:16:31.673Z,13.13
2023-02-28T06:19:01.188Z,7.82
2023-02-28T06:21:31.616Z,10.65
2023-02-28T06:23:59.839Z,13.32
2023-02-28T06:26:27.028Z,17.60
2023-02-28T06:28:54.469Z,15.80
2023-02-28T06:31:22.199Z,12.13
2023-02-28T06:33:49.937Z,13.52
2023-02-28T06:36:18.493Z,12.02
2023-02-28T06:38:45.774Z,10.73
2023-02-28T06:41:12.753Z,11.18
2023-02-28T06:43:42.297Z,13.68
2023-02-28T06:46:12.437Z,17.58
2023-02-28T06:48:39.495Z,16.58
2023-02-28T06:51:11.801Z,15.98
2023-02-28T06:53:39.644Z,13.20
2023-02-28T06:56:09.231Z,13.95
2023-02-28T06:58:36.774Z,18.63
2023-02-28T07:01:04.276Z,16.90
2023-02-28T07:03:34.290Z,12.88
2023-02-28T07:06:02.187Z,14.45
2023-02-28T07:08:29.540Z,15.48
2023-02-28T07:10:57.054Z,15.32
2023-02-28T07:13:25.069Z,16.65
2023-02-28T07:16:04.753Z,15.63
2023-02-28T07:18:32.591Z,16.58
2023-02-28T07:20:59.682Z,15.80
2023-02-28T07:23:26.767Z,18.25
2023-02-28T07:25:53.828Z,15.85
2023-02-28T07:28:24.494Z,14.82
2023-02-28T07:30:51.724Z,17.25
2023-02-28T07:33:18.986Z,15.95
2023-02-28T07:35:46.105Z,15.73
2023-02-28T07:38:14.948Z,15.73
2023-02-28T07:40:41.960Z,16.55
2023-02-28T07:43:09.277Z,13.50
2023-02-28T07:45:36.327Z,16.02
2023-02-28T07:48:03.768Z,15.75
2023-02-28T07:50:32.251Z,13.10
2023-02-28T07:53:00.308Z,15.43
2023-02-28T07:55:27.565Z,15.88
2023-02-28T07:57:55.091Z,12.93
2023-02-28T08:00:22.931Z,15.77
2023-02-28T08:02:50.184Z,13.93
2023-02-28T08:05:18.452Z,14.77
2023-02-28T08:07:48.700Z,15.60
2023-02-28T08:10:15.867Z,17.17
2023-02-28T08:12:42.908Z,17.38
2023-02-28T08:15:10.442Z,13.93
2023-02-28T08:17:37.533Z,17.02
2023-02-28T08:20:05.769Z,14.50
2023-02-28T08:22:32.948Z,13.82
2023-02-28T08:24:59.948Z,15.82
2023-02-28T08:27:26.944Z,12.73
2023-02-28T08:29:53.945Z,17.70
2023-02-28T08:32:29.748Z,11.38
2023-02-28T08:34:57.545Z,15.68
2023-02-28T08:37:24.697Z,15.02
2023-02-28T08:39:53.976Z,13.18
2023-02-28T08:42:23.702Z,14.10
2023-02-28T08:44:50.747Z,13.75
2023-02-28T08:47:17.823Z,16.30
2023-02-28T08:49:44.814Z,12.27
2023-02-28T08:52:11.936Z,13.88
2023-02-28T08:54:39.029Z,15.40
2023-02-28T08:57:06.118Z,14.15
2023-02-28T08:59:33.733Z,16.55
2023-02-28T09:02:00.864Z,13.95
2023-02-28T09:04:28.021Z,14.70
2023-02-28T09:06:55.034Z,14.10
2023-02-28T09:09:22.033Z,13.35
2023-02-28T09:11:49.101Z,14.60
2023-02-28T09:14:18.551Z,17.25
2023-02-28T09:19:13.633Z,14.48
2023-02-28T09:21:40.940Z,11.90
2023-02-28T09:24:09.368Z,14.25
2023-02-28T09:26:42.734Z,12.85
2023-02-28T09:29:15.701Z,16.17
2023-02-28T09:31:42.675Z,26.55
2023-02-28T09:34:09.976Z,16.63
2023-02-28T09:36:45.466Z,15.10
2023-02-28T09:39:13.936Z,14.55
2023-02-28T09:41:52.052Z,10.32
2023-02-28T09:44:33.267Z,16.15
2023-02-28T09:47:32.358Z,14.35
2023-02-28T09:50:08.590Z,11.73
2023-02-28T09:52:36.389Z,16.20
2023-02-28T09:55:19.745Z,9.95
2023-02-28T09:57:47.461Z,11.25
2023-02-28T10:00:25.686Z,14.07
2023-02-28T10:03:11.399Z,15.20
2023-02-28T10:05:50.557Z,14.32
2023-02-28T10:08:26.122Z,13.52
2023-02-28T10:10:56.870Z,14.60
2023-02-28T10:13:35.938Z,14.65
2023-02-28T10:16:11.708Z,11.95
2023-02-28T10:19:24.511Z,14.13
2023-02-28T10:22:00.475Z,15.15
2023-02-28T10:24:44.143Z,13.77
2023-02-28T10:27:17.406Z,13.18
2023-02-28T10:29:46.971Z,12.38
2023-02-28T10:34:43.693Z,13.65
2023-02-28T10:37:13.940Z,11.93
2023-02-28T10:39:47.772Z,11.43
2023-02-28T10:42:29.626Z,14.57
2023-02-28T10:45:18.608Z,11.75
2023-02-28T10:48:05.542Z,13.43
2023-02-28T10:50:50.981Z,11.35
2023-02-28T10:53:26.977Z,13.25
2023-02-28T10:56:11.996Z,12.70
2023-02-28T10:59:24.069Z,16.17
2023-02-28T11:01:53.926Z,19.17
2023-02-28T11:04:36.889Z,12.55
2023-02-28T11:07:17.912Z,15.35
2023-02-28T11:09:50.326Z,12.25
2023-02-28T11:12:43.443Z,11.80
2023-02-28T11:15:55.339Z,13.30
2023-02-28T11:18:22.370Z,12.18
2023-02-28T11:20:54.647Z,12.88
2023-02-28T11:27:51.363Z,12.30
2023-02-28T11:30:31.034Z,14.02
2023-02-28T11:35:45.308Z,11.90
2023-02-28T11:38:14.138Z,11.98
2023-02-28T11:44:57.365Z,14.40
2023-02-28T11:47:46.079Z,15.25
2023-02-28T11:51:16.647Z,11.00
2023-02-28T11:53:55.544Z,11.98
2023-02-28T11:56:34.205Z,15.23
2023-02-28T11:59:12.737Z,11.60
2023-02-28T12:01:47.790Z,15.32
2023-02-28T12:04:33.501Z,14.35
2023-02-28T12:07:26.514Z,12.57
2023-02-28T12:09:58.733Z,14.00
2023-02-28T12:12:39.409Z,14.00
2023-02-28T12:15:09.452Z,15.20
2023-02-28T12:17:46.193Z,11.65
2023-02-28T12:20:25.814Z,13.02
2023-02-28T12:23:05.328Z,12.23
2023-02-28T12:25:32.310Z,11.93
2023-02-28T12:28:00.516Z,12.02
2023-02-28T12:30:34.934Z,13.45
2023-02-28T12:33:13.512Z,13.38
2023-02-28T12:35:56.714Z,14.23
2023-02-28T12:39:05.088Z,15.77
2023-02-28T12:41:52.216Z,12.93
2023-02-28T12:44:28.670Z,10.85
2023-02-28T12:47:00.965Z,15.85
2023-02-28T12:49:28.075Z,20.20
2023-02-28T12:51:55.118Z,12.05
2023-02-28T12:54:28.774Z,12.82
2023-02-28T12:57:19.452Z,16.88
2023-02-28T12:59:57.961Z,12.13
2023-02-28T13:02:47.985Z,13.35
2023-02-28T13:05:27.358Z,13.90
2023-02-28T13:08:21.789Z,17.15
2023-02-28T13:10:55.284Z,16.75
2023-02-28T13:13:26.901Z,14.65
2023-02-28T13:16:11.734Z,13.60
2023-02-28T13:18:41.189Z,19.60
2023-02-28T13:21:10.605Z,23.75
2023-02-28T13:23:48.176Z,16.35
2023-02-28T13:26:15.163Z,11.27
2023-02-28T13:28:58.682Z,14.48
2023-02-28T13:31:26.491Z,23.65
2023-02-28T13:34:14.475Z,17.80
2023-02-28T13:40:38.862Z,12.15
2023-02-28T13:45:40.678Z,13.70
2023-02-28T13:48:20.387Z,13.05
2023-02-28T13:53:14.276Z,13.40
2023-02-28T13:55:49.864Z,13.10
2023-02-28T13:58:44.463Z,16.30
2023-02-28T14:01:52.561Z,13.77
2023-02-28T14:04:51.571Z,12.20
2023-02-28T14:07:36.401Z,13.95
2023-02-28T14:11:13.189Z,12.57
2023-02-28T14:14:58.538Z,13.82
2023-02-28T14:18:22.697Z,13.00
2023-02-28T14:21:31.992Z,13.70
2023-02-28T14:25:01.728Z,16.48
2023-02-28T14:27:51.078Z,14.80
2023-02-28T14:30:52.080Z,13.20
2023-02-28T14:33:47.557Z,15.82
2023-02-28T14:36:33.447Z,24.45
2023-02-28T14:39:13.042Z,22.25
2023-02-28T14:42:45.049Z,13.10
2023-02-28T14:45:40.967Z,16.50
2023-02-28T14:48:11.513Z,13.48
2023-02-28T14:50:38.828Z,11.85
2023-02-28T14:53:27.087Z,14.82
2023-02-28T14:55:54.373Z,15.18
2023-02-28T14:58:27.257Z,14.52
2023-02-28T15:01:01.861Z,13.70
2023-02-28T15:03:37.221Z,14.15
2023-02-28T15:06:56.967Z,14.02
2023-02-28T15:09:24.040Z,11.80
2023-02-28T15:11:51.614Z,13.80
2023-02-28T15:14:22.388Z,14.95
2023-02-28T15:16:56.999Z,15.02
2023-02-28T15:19:37.231Z,12.75
2023-02-28T15:22:08.629Z,12.25
2023-02-28T15:24:43.791Z,14.98
2023-02-28T15:27:22.247Z,15.05
2023-02-28T15:29:54.639Z,15.80
2023-02-28T15:32:29.556Z,13.70
2023-02-28T15:34:57.970Z,14.98
2023-02-28T15:37:46.187Z,13.45
2023-02-28T15:40:18.820Z,14.80
2023-02-28T15:43:01.091Z,12.65
2023-02-28T15:45:32.894Z,13.63
2023-02-28T15:48:05.675Z,16.60
2023-02-28T15:50:40.608Z,17.20
2023-02-28T15:53:18.521Z,13.77
2023-02-28T15:55:46.193Z,14.60
2023-02-28T15:58:14.287Z,14.98
2023-02-28T16:00:46.662Z,15.77
2023-02-28T16:03:41.836Z,16.58
2023-02-28T16:06:31.856Z,16.02
2023-02-28T16:08:58.894Z,13.93
2023-02-28T16:11:26.114Z,14.75
2023-02-28T16:13:54.096Z,15.82
2023-02-28T16:16:27.109Z,14.75
2023-02-28T16:18:54.560Z,16.52
2023-02-28T16:21:21.811Z,16.30
2023-02-28T16:23:48.873Z,20.27
2023-02-28T16:26:22.212Z,22.95
2023-02-28T16:28:49.770Z,17.83
2023-02-28T16:31:17.699Z,32.53
2023-02-28T16:33:46.405Z,26.92
2023-02-28T16:36:22.731Z,20.43
2023-02-28T16:38:49.764Z,15.55
2023-02-28T16:42:13.011Z,15.73
2023-02-28T16:44:41.409Z,17.95
2023-02-28T16:47:11.948Z,17.80
2023-02-28T16:49:39.471Z,17.60
2023-02-28T16:52:07.104Z,16.13
2023-02-28T16:54:34.150Z,16.20
2023-02-28T16:57:01.858Z,20.23
2023-02-28T16:59:30.529Z,19.23
2023-02-28T17:02:00.517Z,17.95
2023-02-28T17:04:28.338Z,21.25
2023-02-28T17:07:31.646Z,16.30
2023-02-28T17:09:58.647Z,16.33
2023-02-28T17:12:25.847Z,20.90
2023-02-28T17:14:52.918Z,17.88
2023-02-28T17:17:22.762Z,15.90
2023-02-28T17:19:49.937Z,16.38
2023-02-28T17:22:16.980Z,17.33
2023-02-28T17:24:44.068Z,16.25
2023-02-28T17:27:13.859Z,23.85
2023-02-28T17:29:41.202Z,21.27
2023-02-28T17:32:17.230Z,18.90
2023-02-28T17:34:47.144Z,16.83
2023-02-28T17:37:14.467Z,22.45
2023-02-28T17:39:41.573Z,22.08
2023-02-28T17:42:27.043Z,25.63
2023-02-28T17:44:54.048Z,25.25
2023-02-28T17:47:21.037Z,33.35
2023-02-28T17:49:48.047Z,63.60
2023-02-28T17:52:15.024Z,63.00
2023-02-28T17:54:42.058Z,37.47
2023-02-28T17:57:15.566Z,34.88
2023-02-28T17:59:43.260Z,26.48
2023-02-28T18:02:14.460Z,27.88
2023-02-28T18:04:41.704Z,25.77
2023-02-28T18:07:11.731Z,31.70
2023-02-28T18:09:38.805Z,34.42
2023-02-28T18:12:06.122Z,35.22
2023-02-28T18:14:33.136Z,31.40
2023-02-28T18:17:00.163Z,27.10
2023-02-28T18:19:27.165Z,34.92
2023-02-28T18:21:54.934Z,24.10
2023-02-28T18:24:24.656Z,26.60
2023-02-28T18:26:52.575Z,43.03
2023-02-28T18:29:23.333Z,53.20
2023-02-28T18:31:54.235Z,30.98
2023-02-28T18:34:22.958Z,33.42
2023-02-28T18:36:51.596Z,28.88
2023-02-28T18:39:19.325Z,41.27
2023-02-28T18:41:46.470Z,53.53
2023-02-28T18:45:15.532Z,36.63
2023-02-28T18:47:42.519Z,18.60
2023-02-28T18:50:10.417Z,22.45
2023-02-28T18:52:39.063Z,25.67
2023-02-28T18:55:08.534Z,27.33
2023-02-28T19:00:02.569Z,23.80
2023-02-28T19:02:29.556Z,38.53
2023-02-28T19:05:25.613Z,42.97
2023-02-28T19:07:52.538Z,31.23
2023-02-28T19:10:19.836Z,23.73
2023-02-28T19:12:47.202Z,23.08
2023-02-28T19:15:14.209Z,29.92
2023-02-28T19:17:41.279Z,27.63
2023-02-28T19:20:09.947Z,22.42
2023-02-28T19:22:37.231Z,22.33
2023-02-28T19:25:08.309Z,24.02
2023-02-28T19:27:35.354Z,23.52
2023-02-28T19:30:03.038Z,19.45
2023-02-28T19:32:30.178Z,22.30
2023-02-28T19:34:57.235Z,22.17
2023-02-28T19:37:24.330Z,19.35
2023-02-28T19:39:54.794Z,23.10
2023-02-28T19:42:22.145Z,25.67
2023-02-28T19:44:50.130Z,30.17
2023-02-28T19:47:17.384Z,29.20
2023-02-28T19:49:44.454Z,28.25
2023-02-28T19:52:14.925Z,29.35
2023-02-28T19:54:42.712Z,32.45
2023-02-28T19:57:09.697Z,28.52
2023-02-28T19:59:39.826Z,26.27
2023-02-28T20:02:18.352Z,23.40
2023-02-28T20:04:50.197Z,22.58
2023-02-28T20:07:20.411Z,25.52
2023-02-28T20:09:48.539Z,23.40
2023-02-28T20:12:25.184Z,20.02
2023-02-28T20:14:56.223Z,22.75
2023-02-28T20:17:24.289Z,23.33
2023-02-28T20:19:51.745Z,28.02
2023-02-28T20:22:19.249Z,24.23
2023-02-28T20:25:49.592Z,19.67
2023-02-28T20:28:17.395Z,25.73
2023-02-28T20:30:46.073Z,25.25
2023-02-28T20:33:13.270Z,22.35
2023-02-28T20:35:40.396Z,20.52
2023-02-28T20:38:09.027Z,23.13
2023-02-28T20:40:36.552Z,20.05
2023-02-28T20:43:04.648Z,18.38
2023-02-28T20:45:32.454Z,21.67
2023-02-28T20:48:00.261Z,20.75
2023-02-28T20:50:27.836Z,20.40
2023-02-28T20:52:55.398Z,27.33
2023-02-28T20:55:22.552Z,27.35
2023-02-28T20:57:50.220Z,26.98
2023-02-28T21:00:20.682Z,26.55
2023-02-28T21:02:48.185Z,24.88
2023-02-28T21:05:15.781Z,23.73
2023-02-28T21:07:42.923Z,48.85
2023-02-28T21:10:10.822Z,31.23
2023-02-28T21:12:38.158Z,27.20
2023-02-28T21:15:05.860Z,24.65
2023-02-28T21:17:33.484Z,26.83
2023-02-28T21:20:00.970Z,30.40
2023-02-28T21:22:28.248Z,25.13
2023-02-28T21:24:55.736Z,21.38
2023-02-28T21:27:23.081Z,23.02
2023-02-28T21:29:50.369Z,20.38
2023-02-28T21:32:18.030Z,23.73
2023-02-28T21:34:45.659Z,24.13
2023-02-28T21:37:13.016Z,21.20
2023-02-28T21:39:40.123Z,20.17
2023-02-28T21:42:07.180Z,20.92
2023-02-28T21:44:34.802Z,22.73
2023-02-28T21:47:02.333Z,27.30
2023-02-28T21:49:29.822Z,25.85
2023-02-28T21:51:57.617Z,28.23
2023-02-28T21:54:25.118Z,33.60
2023-02-28T21:56:52.279Z,33.97
2023-02-28T21:59:19.897Z,30.52
2023-02-28T22:01:49.186Z,21.60
2023-02-28T22:04:21.415Z,24.85
2023-02-28T22:06:57.830Z,23.63
2023-02-28T22:09:25.937Z,23.08
2023-02-28T22:11:52.947Z,23.50
2023-02-28T22:14:20.037Z,22.08
2023-02-28T22:16:51.848Z,26.05
2023-02-28T22:19:21.761Z,25.25
2023-02-28T22:21:49.013Z,22.13
2023-02-28T22:24:18.090Z,20.00
2023-02-28T22:26:45.273Z,24.92
2023-02-28T22:30:05.932Z,25.77
2023-02-28T22:32:33.005Z,24.48
2023-02-28T22:35:00.007Z,20.60
2023-02-28T22:37:27.026Z,22.35
2023-02-28T22:39:54.057Z,22.88
2023-02-28T22:42:21.577Z,28.35
2023-02-28T22:44:51.155Z,27.35
2023-02-28T22:47:18.383Z,24.27
2023-02-28T22:49:45.481Z,23.85
2023-02-28T22:52:12.521Z,23.80
2023-02-28T22:54:39.984Z,25.85
2023-02-28T22:57:06.946Z,22.20
2023-02-28T22:59:34.010Z,27.13
2023-02-28T23:02:01.063Z,21.65
2023-02-28T23:04:28.099Z,26.05
2023-02-28T23:06:55.157Z,23.60
2023-02-28T23:09:25.276Z,27.00
2023-02-28T23:11:53.526Z,26.35
2023-02-28T23:14:21.352Z,28.08
2023-02-28T23:16:50.964Z,22.88
2023-02-28T23:19:24.800Z,25.08
2023-02-28T23:21:51.910Z,26.67
2023-02-28T23:24:21.315Z,26.70
2023-02-28T23:29:18.948Z,25.67
2023-02-28T23:31:45.965Z,28.15
2023-02-28T23:34:13.622Z,25.05
2023-02-28T23:36:47.799Z,31.45
2023-02-28T23:39:17.524Z,28.23
2023-02-28T23:41:44.700Z,23.13
2023-02-28T23:44:16.983Z,25.55
2023-02-28T23:46:51.965Z,32.10
2023-02-28T23:49:20.117Z,31.33
2023-02-28T23:51:49.469Z,28.63
2023-02-28T23:54:17.671Z,27.33
2023-02-28T23:56:45.061Z,30.73
2023-02-28T23:59:12.233Z,25.30
